Terminal Aerodrome Forecast
Issued by NWS Lake Charles, LA

Home | Current Version | Previous Version | Text Only | Print | Product List | Glossary On
Versions: 1 2 3 4 5 6 7 8 9 10 11 12 13 14 15 16
000
FTUS44 KLCH 261024 AAB
TAFLCH
TAF AMD
KLCH 261024Z 2610/2706 VRB04KT P6SM VCSH SCT005 BKN080
      TEMPO 2610/2612 5SM -RA BKN005
     FM261200 06004KT P6SM SCT008 SCT200
     FM261500 08008KT P6SM SCT025
     FM261900 11007KT P6SM VCTS FEW025CB SCT035
     FM270100 04004KT P6SM FEW050 BKN150=

USA.gov is the U.S. government's official web portal to all federal, state and local government web resources and services.